createdAt,value
2019-03-28T00:00:59.407Z,19.85
2019-03-28T00:03:31.312Z,22.55
2019-03-28T00:05:58.823Z,16.75
2019-03-28T00:08:26.399Z,22.25
2019-03-28T00:10:58.707Z,23.02
2019-03-28T00:13:28.173Z,20.52
2019-03-28T00:15:56.101Z,17.30
2019-03-28T00:18:23.728Z,15.93
2019-03-28T00:20:51.632Z,19.50
2019-03-28T00:23:35.172Z,12.15
2019-03-28T00:26:08.806Z,18.90
2019-03-28T00:28:37.956Z,19.23
2019-03-28T00:31:05.707Z,19.10
2019-03-28T00:33:33.254Z,20.40
2019-03-28T00:36:01.133Z,22.85
2019-03-28T00:38:28.788Z,21.87
2019-03-28T00:40:57.212Z,19.50
2019-03-28T00:43:25.643Z,19.75
2019-03-28T00:45:53.539Z,19.23
2019-03-28T00:48:21.203Z,18.92
2019-03-28T00:50:48.885Z,19.75
2019-03-28T00:53:16.554Z,21.12
2019-03-28T00:55:44.529Z,22.80
2019-03-28T00:58:12.405Z,21.37
2019-03-28T01:00:41.089Z,17.55
2019-03-28T01:03:09.984Z,20.57
2019-03-28T01:05:38.059Z,20.43
2019-03-28T01:08:08.512Z,18.73
2019-03-28T01:10:39.151Z,19.70
2019-03-28T01:13:06.812Z,18.23
2019-03-28T01:15:37.515Z,16.80
2019-03-28T01:18:05.239Z,20.88
2019-03-28T01:20:33.647Z,19.25
2019-03-28T01:23:01.251Z,22.10
2019-03-28T01:25:29.236Z,20.02
2019-03-28T01:27:57.122Z,21.82
2019-03-28T01:30:24.791Z,22.50
2019-03-28T01:32:53.198Z,19.20
2019-03-28T01:35:22.332Z,17.50
2019-03-28T01:37:50.977Z,18.20
2019-03-28T01:40:21.310Z,18.62
2019-03-28T01:42:51.870Z,18.45
2019-03-28T01:45:20.875Z,21.10
2019-03-28T01:47:48.923Z,22.42
2019-03-28T01:50:23.856Z,20.85
2019-03-28T01:52:52.006Z,26.57
2019-03-28T01:55:19.708Z,24.37
2019-03-28T01:57:53.055Z,23.15
2019-03-28T02:00:23.011Z,27.07
2019-03-28T02:02:50.683Z,23.60
2019-03-28T02:05:20.291Z,20.45
2019-03-28T02:07:52.438Z,22.00
2019-03-28T02:10:20.246Z,20.37
2019-03-28T02:13:10.504Z,19.98
2019-03-28T02:15:38.656Z,22.58
2019-03-28T02:18:13.688Z,23.05
2019-03-28T02:20:43.507Z,18.20
2019-03-28T02:23:11.232Z,22.82
2019-03-28T02:25:38.751Z,24.60
2019-03-28T02:28:06.316Z,24.45
2019-03-28T02:30:34.355Z,18.85
2019-03-28T02:33:02.040Z,22.00
2019-03-28T02:35:29.772Z,28.50
2019-03-28T02:37:57.602Z,23.12
2019-03-28T02:40:25.389Z,24.63
2019-03-28T02:42:53.546Z,24.07
2019-03-28T02:45:21.340Z,22.60
2019-03-28T02:47:48.963Z,23.90
2019-03-28T02:50:16.974Z,25.90
2019-03-28T02:52:44.716Z,25.17
2019-03-28T02:55:12.458Z,30.32
2019-03-28T02:57:42.267Z,22.90
2019-03-28T03:00:10.348Z,24.15
2019-03-28T03:02:43.732Z,25.08
2019-03-28T03:05:11.554Z,23.47
2019-03-28T03:07:40.005Z,23.85
2019-03-28T03:10:08.268Z,25.85
2019-03-28T03:12:35.837Z,21.30
2019-03-28T03:15:04.110Z,20.40
2019-03-28T03:17:31.765Z,28.45
2019-03-28T03:20:00.531Z,22.77
2019-03-28T03:22:28.752Z,30.35
2019-03-28T03:24:56.878Z,29.23
2019-03-28T03:27:24.740Z,22.82
2019-03-28T03:29:52.529Z,19.17
2019-03-28T03:32:20.400Z,23.77
2019-03-28T03:34:48.437Z,25.85
2019-03-28T03:37:16.160Z,24.02
2019-03-28T03:39:43.808Z,22.40
2019-03-28T03:42:14.008Z,23.57
2019-03-28T03:44:42.125Z,24.37
2019-03-28T03:47:10.565Z,22.17
2019-03-28T03:49:38.247Z,24.77
2019-03-28T03:52:06.137Z,23.67
2019-03-28T03:54:34.664Z,22.00
2019-03-28T03:57:02.288Z,27.73
2019-03-28T03:59:29.839Z,28.98
2019-03-28T04:01:57.406Z,27.93
2019-03-28T04:04:25.409Z,29.95
2019-03-28T04:06:53.319Z,27.90
2019-03-28T04:09:20.859Z,25.80
2019-03-28T04:11:48.933Z,27.50
2019-03-28T04:14:16.627Z,28.90
2019-03-28T04:16:44.311Z,27.15
2019-03-28T04:19:12.228Z,28.70
2019-03-28T04:21:39.968Z,31.40
2019-03-28T04:24:07.637Z,30.15
2019-03-28T04:26:35.332Z,29.77
2019-03-28T04:29:03.109Z,32.10
2019-03-28T04:31:30.769Z,30.15
2019-03-28T04:33:58.780Z,28.45
2019-03-28T04:36:26.745Z,28.55
2019-03-28T04:38:54.383Z,28.23
2019-03-28T04:41:21.962Z,28.10
2019-03-28T04:43:49.526Z,28.12
2019-03-28T04:46:17.431Z,30.23
2019-03-28T04:48:45.469Z,26.12
2019-03-28T04:51:13.107Z,39.38
2019-03-28T04:53:40.690Z,27.67
2019-03-28T04:56:08.578Z,28.92
2019-03-28T04:58:44.267Z,29.67
2019-03-28T05:01:06.170Z,24.27
2019-03-28T05:03:34.867Z,26.70
2019-03-28T05:06:02.645Z,29.52
2019-03-28T05:08:30.298Z,28.73
2019-03-28T05:10:58.349Z,28.23
2019-03-28T05:13:26.084Z,30.00
2019-03-28T05:15:54.261Z,24.43
2019-03-28T05:18:21.887Z,33.42
2019-03-28T05:20:49.494Z,30.43
2019-03-28T05:23:17.178Z,33.78
2019-03-28T05:25:53.138Z,25.37
2019-03-28T05:28:21.423Z,29.40
2019-03-28T05:30:49.066Z,31.23
2019-03-28T05:33:17.375Z,29.70
2019-03-28T05:35:45.722Z,29.80
2019-03-28T05:38:13.403Z,28.57
2019-03-28T05:40:41.295Z,28.47
2019-03-28T05:43:08.935Z,37.48
2019-03-28T05:45:36.584Z,31.17
2019-03-28T05:48:04.361Z,28.50
2019-03-28T05:50:32.592Z,30.37
2019-03-28T05:53:00.201Z,32.25
2019-03-28T05:55:28.379Z,38.40
2019-03-28T05:57:56.189Z,37.50
2019-03-28T06:00:23.866Z,29.50
2019-03-28T06:02:51.418Z,43.85
2019-03-28T06:05:19.040Z,32.78
2019-03-28T06:07:47.160Z,31.02
2019-03-28T06:10:16.366Z,33.88
2019-03-28T06:12:44.390Z,32.88
2019-03-28T06:15:12.356Z,26.07
2019-03-28T06:17:40.553Z,31.65
2019-03-28T06:20:09.538Z,34.23
2019-03-28T06:22:37.488Z,31.50
2019-03-28T06:25:06.053Z,37.42
2019-03-28T06:27:34.167Z,27.90
2019-03-28T06:30:02.564Z,29.82
2019-03-28T06:32:42.269Z,26.05
2019-03-28T06:35:00.673Z,28.50
2019-03-28T06:37:28.753Z,35.30
2019-03-28T06:39:56.658Z,25.15
2019-03-28T06:42:24.695Z,28.65
2019-03-28T06:44:52.373Z,33.18
2019-03-28T06:47:21.231Z,30.32
2019-03-28T06:49:49.368Z,26.10
2019-03-28T06:52:17.052Z,32.15
2019-03-28T06:54:44.980Z,33.08
2019-03-28T06:57:13.023Z,30.55
2019-03-28T06:59:40.994Z,33.23
2019-03-28T07:02:08.954Z,31.93
2019-03-28T07:04:36.859Z,28.15
2019-03-28T07:07:04.819Z,31.02
2019-03-28T07:09:33.548Z,26.05
2019-03-28T07:12:01.489Z,29.00
2019-03-28T07:14:29.361Z,31.70
2019-03-28T07:16:57.360Z,33.45
2019-03-28T07:19:25.532Z,27.82
2019-03-28T07:21:53.143Z,26.17
2019-03-28T07:24:21.095Z,23.87
2019-03-28T07:26:48.797Z,23.95
2019-03-28T07:29:16.445Z,24.18
2019-03-28T07:31:44.563Z,27.15
2019-03-28T07:34:13.535Z,29.85
2019-03-28T07:36:41.479Z,31.23
2019-03-28T07:39:09.296Z,23.77
2019-03-28T07:41:37.036Z,22.80
2019-03-28T07:44:04.963Z,31.00
2019-03-28T07:46:32.860Z,24.55
2019-03-28T07:49:00.660Z,28.92
2019-03-28T07:51:28.325Z,25.62
2019-03-28T07:53:55.982Z,22.07
2019-03-28T07:56:23.615Z,26.85
2019-03-28T07:58:54.210Z,25.08
2019-03-28T08:01:21.838Z,29.85
2019-03-28T08:03:49.642Z,27.67
2019-03-28T08:06:17.290Z,30.05
2019-03-28T08:08:45.059Z,34.13
2019-03-28T08:11:13.112Z,28.80
2019-03-28T08:13:40.811Z,31.97
2019-03-28T08:16:08.444Z,29.15
2019-03-28T08:18:36.195Z,26.42
2019-03-28T08:21:03.871Z,28.35
2019-03-28T08:23:34.919Z,27.10
2019-03-28T08:26:01.114Z,25.68
2019-03-28T08:28:29.397Z,26.75
2019-03-28T08:30:57.520Z,27.17
2019-03-28T08:33:26.479Z,26.27
2019-03-28T08:35:55.839Z,29.80
2019-03-28T08:38:25.873Z,30.40
2019-03-28T08:40:53.854Z,29.32
2019-03-28T08:43:21.451Z,27.05
2019-03-28T08:45:49.448Z,26.17
2019-03-28T08:48:17.172Z,26.20
2019-03-28T08:50:44.718Z,26.23
2019-03-28T08:53:12.430Z,25.65
2019-03-28T08:55:40.208Z,25.75
2019-03-28T08:58:07.965Z,25.80
2019-03-28T09:00:51.092Z,28.83
2019-03-28T09:03:07.299Z,30.08
2019-03-28T09:05:34.940Z,27.85
2019-03-28T09:08:02.712Z,28.45
2019-03-28T09:10:30.416Z,24.32
2019-03-28T09:12:58.629Z,25.17
2019-03-28T09:15:26.698Z,24.60
2019-03-28T09:17:54.351Z,23.47
2019-03-28T09:20:22.020Z,29.12
2019-03-28T09:22:50.104Z,24.20
2019-03-28T09:25:17.765Z,28.52
2019-03-28T09:27:45.411Z,23.32
2019-03-28T09:30:15.359Z,24.67
2019-03-28T09:32:42.967Z,23.80
2019-03-28T09:35:14.230Z,24.95
2019-03-28T09:37:42.110Z,21.65
2019-03-28T09:40:10.171Z,26.60
2019-03-28T09:42:37.727Z,26.05
2019-03-28T09:45:05.704Z,25.43
2019-03-28T09:47:33.331Z,23.65
2019-03-28T09:50:01.450Z,22.45
2019-03-28T09:52:29.324Z,27.27
2019-03-28T09:54:56.869Z,19.87
2019-03-28T09:57:24.430Z,25.65
2019-03-28T09:59:52.004Z,16.37
2019-03-28T10:02:21.911Z,22.77
2019-03-28T10:04:50.047Z,25.05
2019-03-28T10:07:17.574Z,24.82
2019-03-28T10:09:45.637Z,22.42
2019-03-28T10:12:13.288Z,19.48
2019-03-28T10:14:40.958Z,23.73
2019-03-28T10:17:08.604Z,29.70
2019-03-28T10:19:36.727Z,19.50
2019-03-28T10:22:04.459Z,23.60
2019-03-28T10:24:34.263Z,21.37
2019-03-28T10:27:02.009Z,22.65
2019-03-28T10:29:29.927Z,22.65
2019-03-28T10:31:57.973Z,20.23
2019-03-28T10:34:25.571Z,19.77
2019-03-28T10:36:53.816Z,17.62
2019-03-28T10:39:21.539Z,18.05
2019-03-28T10:41:49.175Z,16.77
2019-03-28T10:44:17.764Z,19.75
2019-03-28T10:46:45.387Z,20.08
2019-03-28T10:49:12.994Z,19.07
2019-03-28T10:51:40.528Z,17.10
2019-03-28T10:54:19.365Z,18.32
2019-03-28T10:56:50.732Z,18.02
2019-03-28T10:59:07.100Z,18.27
2019-03-28T11:01:48.073Z,12.60
2019-03-28T11:04:04.325Z,15.20
2019-03-28T11:06:32.511Z,17.45
2019-03-28T11:09:00.257Z,12.88
2019-03-28T11:11:27.949Z,11.43
2019-03-28T11:13:55.887Z,11.10
2019-03-28T11:16:23.572Z,10.48
2019-03-28T11:18:51.316Z,10.32
2019-03-28T11:21:18.997Z,10.48
2019-03-28T11:23:46.649Z,12.68
2019-03-28T11:26:14.268Z,7.53
2019-03-28T11:28:42.265Z,6.72
2019-03-28T11:31:10.446Z,7.75
2019-03-28T11:33:38.430Z,8.98
2019-03-28T11:36:06.244Z,10.50
2019-03-28T11:38:33.861Z,9.48
2019-03-28T11:41:01.563Z,7.72
2019-03-28T11:43:29.508Z,13.38
2019-03-28T11:45:57.240Z,8.58
2019-03-28T11:48:24.807Z,12.98
2019-03-28T11:50:52.474Z,7.83
2019-03-28T11:53:20.615Z,11.28
2019-03-28T11:55:48.963Z,8.50
2019-03-28T11:58:16.892Z,10.50
2019-03-28T12:00:44.667Z,9.40
2019-03-28T12:03:12.622Z,8.10
2019-03-28T12:05:40.220Z,8.05
2019-03-28T12:08:08.102Z,9.78
2019-03-28T12:10:35.756Z,10.55
2019-03-28T12:13:03.581Z,8.45
2019-03-28T12:15:31.206Z,9.60
2019-03-28T12:17:59.169Z,9.75
2019-03-28T12:20:27.114Z,7.35
2019-03-28T12:22:56.203Z,7.87
2019-03-28T12:25:24.014Z,8.73
2019-03-28T12:27:51.686Z,10.72
2019-03-28T12:30:20.399Z,9.60
2019-03-28T12:32:47.931Z,11.88
2019-03-28T12:35:16.594Z,9.70
2019-03-28T12:37:44.208Z,11.38
2019-03-28T12:40:12.555Z,8.18
2019-03-28T12:42:40.547Z,10.53
2019-03-28T12:45:09.613Z,10.10
2019-03-28T12:47:42.677Z,11.45
2019-03-28T12:50:09.520Z,8.00
2019-03-28T12:52:37.323Z,9.98
2019-03-28T12:55:05.211Z,11.90
2019-03-28T12:57:33.425Z,9.23
2019-03-28T13:00:01.066Z,10.88
2019-03-28T13:02:31.970Z,10.93
2019-03-28T13:04:58.429Z,8.38
2019-03-28T13:07:26.115Z,11.38
2019-03-28T13:09:53.756Z,10.85
2019-03-28T13:12:21.354Z,8.58
2019-03-28T13:14:49.279Z,8.60
2019-03-28T13:17:16.815Z,8.73
2019-03-28T13:19:44.599Z,10.05
2019-03-28T13:22:12.308Z,10.20
2019-03-28T13:24:40.736Z,7.92
2019-03-28T13:27:08.372Z,9.05
2019-03-28T13:29:35.972Z,9.50
2019-03-28T13:32:03.572Z,9.73
2019-03-28T13:34:31.083Z,11.15
2019-03-28T13:36:59.206Z,9.50
2019-03-28T13:39:26.888Z,11.90
2019-03-28T13:41:54.517Z,10.03
2019-03-28T13:44:22.718Z,12.65
2019-03-28T13:46:50.951Z,7.20
2019-03-28T13:49:18.486Z,7.22
2019-03-28T13:51:46.111Z,6.47
2019-03-28T13:54:14.067Z,12.63
2019-03-28T13:56:41.565Z,7.70
2019-03-28T13:59:09.191Z,10.13
2019-03-28T14:01:37.026Z,9.18
2019-03-28T14:04:04.542Z,9.20
2019-03-28T14:06:32.191Z,7.67
2019-03-28T14:08:59.872Z,10.38
2019-03-28T14:11:27.883Z,9.70
2019-03-28T14:13:55.438Z,10.10
2019-03-28T14:16:23.129Z,10.10
2019-03-28T14:18:51.586Z,11.40
2019-03-28T14:21:20.819Z,12.93
2019-03-28T14:23:48.631Z,10.58
2019-03-28T14:26:16.585Z,9.40
2019-03-28T14:28:44.205Z,12.37
2019-03-28T14:31:11.712Z,10.68
2019-03-28T14:33:39.275Z,12.95
2019-03-28T14:36:06.838Z,11.18
2019-03-28T14:38:37.305Z,15.75
2019-03-28T14:41:03.846Z,17.85
2019-03-28T14:43:31.394Z,11.83
2019-03-28T14:45:59.047Z,14.40
2019-03-28T14:48:26.569Z,10.50
2019-03-28T14:50:54.480Z,16.90
2019-03-28T14:53:22.433Z,9.25
2019-03-28T14:55:50.623Z,11.95
2019-03-28T14:58:21.832Z,12.13
2019-03-28T15:00:50.682Z,12.85
2019-03-28T15:03:27.202Z,10.00
2019-03-28T15:05:48.160Z,10.58
2019-03-28T15:08:15.933Z,10.13
2019-03-28T15:10:43.527Z,10.25
2019-03-28T15:13:11.658Z,15.28
2019-03-28T15:15:39.467Z,12.98
2019-03-28T15:18:07.397Z,10.72
2019-03-28T15:20:34.942Z,11.70
2019-03-28T15:23:02.956Z,9.88
2019-03-28T15:25:30.699Z,8.35
2019-03-28T15:27:58.427Z,12.13
2019-03-28T15:30:26.400Z,8.70
2019-03-28T15:32:53.969Z,14.58
2019-03-28T15:35:23.190Z,10.53
2019-03-28T15:37:50.987Z,8.15
2019-03-28T15:40:18.686Z,6.75
2019-03-28T15:42:47.186Z,6.90
2019-03-28T15:45:15.312Z,11.40
2019-03-28T15:47:43.881Z,9.70
2019-03-28T15:50:11.512Z,8.88
2019-03-28T15:52:39.285Z,11.93
2019-03-28T15:55:07.640Z,8.90
2019-03-28T15:57:35.763Z,9.50
2019-03-28T16:00:05.283Z,10.05
2019-03-28T16:02:33.880Z,9.85
2019-03-28T16:05:01.653Z,9.68
2019-03-28T16:07:29.698Z,10.38
2019-03-28T16:09:57.385Z,13.45
2019-03-28T16:12:24.998Z,10.30
2019-03-28T16:14:52.737Z,7.00
2019-03-28T16:17:20.363Z,12.45
2019-03-28T16:20:02.239Z,9.75
2019-03-28T16:22:30.106Z,8.10
2019-03-28T16:24:58.345Z,12.10
2019-03-28T16:27:25.876Z,11.18
2019-03-28T16:29:54.499Z,11.90
2019-03-28T16:32:24.594Z,9.50
2019-03-28T16:34:52.211Z,10.88
2019-03-28T16:37:20.227Z,10.93
2019-03-28T16:39:49.986Z,9.50
2019-03-28T16:42:18.650Z,10.23
2019-03-28T16:44:46.273Z,8.35
2019-03-28T16:47:13.910Z,8.60
2019-03-28T16:49:42.353Z,12.43
2019-03-28T16:52:09.932Z,8.38
2019-03-28T16:54:37.733Z,8.68
2019-03-28T16:57:05.755Z,10.53
2019-03-28T16:59:33.353Z,9.33
2019-03-28T17:02:01.133Z,7.10
2019-03-28T17:04:28.996Z,9.50
2019-03-28T17:06:56.624Z,9.28
2019-03-28T17:09:25.065Z,12.00
2019-03-28T17:11:53.111Z,8.00
2019-03-28T17:14:21.116Z,8.75
2019-03-28T17:16:49.258Z,7.03
2019-03-28T17:19:17.150Z,8.43
2019-03-28T17:21:45.424Z,7.28
2019-03-28T17:24:13.602Z,10.10
2019-03-28T17:26:41.252Z,12.10
2019-03-28T17:29:09.439Z,8.58
2019-03-28T17:31:37.324Z,5.72
2019-03-28T17:34:05.016Z,9.10
2019-03-28T17:36:33.537Z,8.15
2019-03-28T17:39:01.645Z,8.90
2019-03-28T17:41:31.873Z,4.50
2019-03-28T17:44:00.072Z,6.28
2019-03-28T17:46:27.836Z,8.30
2019-03-28T17:48:57.653Z,6.72
2019-03-28T17:51:25.197Z,8.10
2019-03-28T17:53:55.971Z,9.40
2019-03-28T17:56:23.049Z,10.43
2019-03-28T17:58:50.894Z,7.17
2019-03-28T18:01:19.161Z,10.35
2019-03-28T18:03:46.925Z,12.20
2019-03-28T18:06:14.864Z,7.35
2019-03-28T18:08:43.038Z,8.43
2019-03-28T18:11:10.806Z,9.25
2019-03-28T18:13:38.444Z,7.33
2019-03-28T18:16:06.237Z,7.95
2019-03-28T18:18:33.891Z,10.13
2019-03-28T18:21:01.669Z,9.65
2019-03-28T18:23:29.743Z,10.72
2019-03-28T18:25:57.418Z,10.40
2019-03-28T18:28:25.087Z,12.82
2019-03-28T18:30:52.817Z,10.23
2019-03-28T18:33:20.569Z,6.35
2019-03-28T18:35:48.158Z,14.85
2019-03-28T18:38:15.812Z,12.00
2019-03-28T18:40:43.341Z,12.47
2019-03-28T18:43:11.329Z,10.35
2019-03-28T18:45:39.037Z,9.73
2019-03-28T18:48:09.048Z,7.78
2019-03-28T18:50:36.855Z,11.70
2019-03-28T18:53:04.745Z,9.83
2019-03-28T18:55:32.490Z,8.83
2019-03-28T18:58:00.339Z,9.05
2019-03-28T19:00:28.448Z,8.15
2019-03-28T19:02:56.184Z,11.63
2019-03-28T19:05:23.926Z,9.53
2019-03-28T19:07:51.748Z,12.55
2019-03-28T19:10:19.464Z,10.03
2019-03-28T19:12:47.930Z,9.70
2019-03-28T19:15:16.119Z,13.48
2019-03-28T19:17:44.044Z,9.40
2019-03-28T19:20:12.659Z,12.88
2019-03-28T19:22:40.794Z,11.97
2019-03-28T19:25:09.408Z,12.68
2019-03-28T19:27:37.349Z,13.68
2019-03-28T19:30:08.401Z,10.40
2019-03-28T19:32:36.319Z,11.65
2019-03-28T19:35:05.135Z,13.32
2019-03-28T19:37:33.459Z,11.53
2019-03-28T19:40:02.864Z,16.45
2019-03-28T19:42:31.636Z,14.75
2019-03-28T19:44:59.498Z,12.05
2019-03-28T19:47:28.506Z,12.68
2019-03-28T19:49:56.441Z,14.43
2019-03-28T19:52:25.891Z,12.23
2019-03-28T19:54:53.821Z,23.10
2019-03-28T19:57:21.572Z,10.18
2019-03-28T19:59:49.195Z,13.40
2019-03-28T20:02:17.079Z,10.63
2019-03-28T20:04:44.666Z,14.28
2019-03-28T20:07:21.490Z,11.53
2019-03-28T20:09:41.974Z,11.00
2019-03-28T20:12:09.728Z,9.75
2019-03-28T20:14:37.264Z,10.48
2019-03-28T20:17:05.001Z,13.98
2019-03-28T20:19:32.962Z,11.97
2019-03-28T20:22:00.925Z,16.62
2019-03-28T20:24:28.646Z,11.65
2019-03-28T20:26:56.837Z,11.50
2019-03-28T20:29:24.464Z,10.48
2019-03-28T20:31:52.146Z,13.30
2019-03-28T20:34:21.301Z,14.80
2019-03-28T20:36:52.571Z,11.95
2019-03-28T20:39:19.619Z,16.90
2019-03-28T20:41:47.663Z,14.25
2019-03-28T20:44:15.341Z,13.40
2019-03-28T20:46:42.922Z,15.53
2019-03-28T20:49:10.582Z,15.63
2019-03-28T20:51:38.718Z,17.82
2019-03-28T20:54:07.910Z,12.50
2019-03-28T20:56:37.255Z,15.08
2019-03-28T20:59:05.012Z,14.75
2019-03-28T21:01:32.754Z,13.80
2019-03-28T21:04:01.030Z,13.43
2019-03-28T21:06:28.730Z,16.42
2019-03-28T21:08:56.563Z,13.55
2019-03-28T21:11:25.835Z,13.32
2019-03-28T21:13:54.889Z,13.58
2019-03-28T21:16:22.631Z,12.88
2019-03-28T21:18:50.211Z,14.75
2019-03-28T21:21:17.839Z,12.13
2019-03-28T21:23:45.717Z,11.90
2019-03-28T21:26:13.555Z,10.15
2019-03-28T21:28:47.240Z,14.85
2019-03-28T21:31:10.965Z,11.65
2019-03-28T21:33:38.884Z,12.65
2019-03-28T21:36:06.758Z,14.28
2019-03-28T21:38:34.319Z,14.78
2019-03-28T21:41:02.017Z,12.47
2019-03-28T21:43:30.826Z,12.58
2019-03-28T21:45:58.727Z,14.70
2019-03-28T21:48:26.817Z,13.38
2019-03-28T21:50:55.019Z,17.07
2019-03-28T21:53:22.671Z,16.15
2019-03-28T21:55:55.331Z,16.65
2019-03-28T21:58:22.456Z,10.50
2019-03-28T22:00:50.790Z,10.98
2019-03-28T22:03:19.765Z,15.65
2019-03-28T22:05:47.814Z,13.48
2019-03-28T22:08:16.187Z,12.70
2019-03-28T22:10:44.429Z,13.53
2019-03-28T22:13:13.243Z,12.75
2019-03-28T22:15:41.386Z,14.63
2019-03-28T22:18:09.186Z,14.05
2019-03-28T22:20:36.790Z,12.20
2019-03-28T22:23:04.455Z,13.43
2019-03-28T22:25:32.066Z,13.15
2019-03-28T22:28:00.146Z,9.73
2019-03-28T22:30:27.911Z,14.35
2019-03-28T22:32:55.977Z,11.55
2019-03-28T22:35:24.178Z,10.10
2019-03-28T22:37:52.094Z,11.45
2019-03-28T22:40:20.195Z,12.90
2019-03-28T22:42:48.249Z,8.95
2019-03-28T22:45:15.969Z,13.90
2019-03-28T22:47:43.566Z,12.03
2019-03-28T22:50:11.643Z,12.50
2019-03-28T22:52:39.704Z,12.73
2019-03-28T22:55:08.418Z,10.85
2019-03-28T22:57:36.084Z,12.20
2019-03-28T23:00:06.541Z,10.25
2019-03-28T23:02:36.701Z,10.05
2019-03-28T23:05:07.130Z,11.35
2019-03-28T23:07:34.771Z,12.75
2019-03-28T23:10:02.487Z,10.45
2019-03-28T23:12:30.587Z,10.98
2019-03-28T23:14:58.818Z,9.35
2019-03-28T23:17:27.210Z,9.78
2019-03-28T23:19:55.078Z,9.78
2019-03-28T23:22:22.609Z,12.23
2019-03-28T23:24:52.381Z,11.73
2019-03-28T23:27:20.519Z,11.70
2019-03-28T23:29:49.761Z,8.28
2019-03-28T23:32:17.460Z,11.60
2019-03-28T23:34:46.075Z,10.60
2019-03-28T23:37:24.121Z,14.53
2019-03-28T23:39:43.943Z,10.78
2019-03-28T23:42:11.908Z,9.55
2019-03-28T23:44:39.844Z,11.08
2019-03-28T23:47:09.271Z,15.15
2019-03-28T23:49:38.738Z,15.78
2019-03-28T23:52:06.971Z,12.82
2019-03-28T23:54:35.227Z,13.72
2019-03-28T23:57:03.831Z,12.35
2019-03-28T23:59:31.828Z,12.82
